createdAt,value
2022-09-28T00:01:07.914Z,11.20
2022-09-28T00:03:35.262Z,11.20
2022-09-28T00:06:11.305Z,11.20
2022-09-28T00:08:38.467Z,11.20
2022-09-28T00:11:12.323Z,11.10
2022-09-28T00:13:40.418Z,11.10
2022-09-28T00:16:11.881Z,11.10
2022-09-28T00:18:38.740Z,11.10
2022-09-28T00:21:10.220Z,11.00
2022-09-28T00:24:00.540Z,11.00
2022-09-28T00:26:28.922Z,11.00
2022-09-28T00:29:00.627Z,10.90
2022-09-28T00:31:32.779Z,10.90
2022-09-28T00:34:01.952Z,10.80
2022-09-28T00:36:32.266Z,10.80
2022-09-28T00:38:59.995Z,10.70
2022-09-28T00:41:29.681Z,10.70
2022-09-28T00:44:24.925Z,10.60
2022-09-28T00:47:05.042Z,10.60
2022-09-28T00:49:50.890Z,10.50
2022-09-28T00:52:27.345Z,10.50
2022-09-28T00:54:56.300Z,10.50
2022-09-28T00:57:24.134Z,10.50
2022-09-28T00:59:52.400Z,10.50
2022-09-28T01:02:21.453Z,10.50
2022-09-28T01:04:50.250Z,10.50
2022-09-28T01:07:18.803Z,10.50
2022-09-28T01:09:46.521Z,10.50
2022-09-28T01:12:13.385Z,10.50
2022-09-28T01:14:41.349Z,10.50
2022-09-28T01:17:15.726Z,10.50
2022-09-28T01:20:01.055Z,10.50
2022-09-28T01:23:06.893Z,10.50
2022-09-28T01:25:41.225Z,10.50
2022-09-28T01:28:12.248Z,10.50
2022-09-28T01:31:09.273Z,10.50
2022-09-28T01:33:48.515Z,10.50
2022-09-28T01:36:28.262Z,10.50
2022-09-28T01:39:11.022Z,10.50
2022-09-28T01:41:40.500Z,10.50
2022-09-28T01:44:13.003Z,10.50
2022-09-28T01:46:49.294Z,10.50
2022-09-28T01:49:31.354Z,10.50
2022-09-28T01:52:01.050Z,10.50
2022-09-28T01:54:37.227Z,10.50
2022-09-28T01:57:22.811Z,10.50
2022-09-28T01:59:57.661Z,10.50
2022-09-28T02:02:29.678Z,10.40
2022-09-28T02:05:06.671Z,10.50
2022-09-28T02:07:51.482Z,10.50
2022-09-28T02:10:21.467Z,10.50
2022-09-28T02:12:54.044Z,10.50
2022-09-28T02:15:28.031Z,10.50
2022-09-28T02:17:55.096Z,10.40
2022-09-28T02:20:23.129Z,10.40
2022-09-28T02:22:53.458Z,10.40
2022-09-28T02:25:28.459Z,10.30
2022-09-28T02:28:04.396Z,10.30
2022-09-28T02:30:32.905Z,10.30
2022-09-28T02:33:23.305Z,10.30
2022-09-28T02:35:50.552Z,10.30
2022-09-28T02:38:17.721Z,10.30
2022-09-28T02:40:51.425Z,10.30
2022-09-28T02:43:32.182Z,10.20
2022-09-28T02:46:29.792Z,10.20
2022-09-28T02:49:21.838Z,10.20
2022-09-28T02:52:26.497Z,10.20
2022-09-28T02:55:07.926Z,10.20
2022-09-28T02:57:52.399Z,10.20
2022-09-28T03:00:22.936Z,10.20
2022-09-28T03:03:13.036Z,10.20
2022-09-28T03:05:45.861Z,10.20
2022-09-28T03:08:25.554Z,10.20
2022-09-28T03:10:58.351Z,10.20
2022-09-28T03:13:26.952Z,10.20
2022-09-28T03:16:13.415Z,10.20
2022-09-28T03:18:41.519Z,10.20
2022-09-28T03:21:11.484Z,10.20
2022-09-28T03:23:39.173Z,10.30
2022-09-28T03:26:07.816Z,10.20
2022-09-28T03:28:36.316Z,10.20
2022-09-28T03:31:03.704Z,10.20
2022-09-28T03:33:30.801Z,10.30
2022-09-28T03:35:57.694Z,10.30
2022-09-28T03:38:24.586Z,10.30
2022-09-28T03:40:58.075Z,10.50
2022-09-28T03:43:25.829Z,10.60
2022-09-28T03:45:56.930Z,10.50
2022-09-28T03:48:28.802Z,10.60
2022-09-28T03:51:03.659Z,10.70
2022-09-28T03:53:30.772Z,10.70
2022-09-28T03:56:03.502Z,10.60
2022-09-28T03:58:30.488Z,10.60
2022-09-28T04:01:03.245Z,10.50
2022-09-28T04:03:30.353Z,10.60
2022-09-28T04:05:57.480Z,10.50
2022-09-28T04:08:24.445Z,10.50
2022-09-28T04:10:51.506Z,10.40
2022-09-28T04:13:18.320Z,10.30
2022-09-28T04:15:52.889Z,10.20
2022-09-28T04:18:20.053Z,10.20
2022-09-28T04:20:48.221Z,10.20
2022-09-28T04:23:17.965Z,10.20
2022-09-28T04:25:47.907Z,10.10
2022-09-28T04:28:34.002Z,10.10
2022-09-28T04:31:00.799Z,10.10
2022-09-28T04:33:27.618Z,10.10
2022-09-28T04:35:54.452Z,10.10
2022-09-28T04:38:41.594Z,10.10
2022-09-28T04:41:08.123Z,10.10
2022-09-28T04:43:35.095Z,10.10
2022-09-28T04:46:02.752Z,10.10
2022-09-28T04:48:29.790Z,10.10
2022-09-28T04:50:58.414Z,10.10
2022-09-28T04:53:26.410Z,10.10
2022-09-28T04:56:06.858Z,10.10
2022-09-28T04:58:35.764Z,10.10
2022-09-28T05:01:06.046Z,10.10
2022-09-28T05:03:34.130Z,10.10
2022-09-28T05:06:01.653Z,10.10
2022-09-28T05:08:28.954Z,10.10
2022-09-28T05:11:06.566Z,10.00
2022-09-28T05:13:35.899Z,10.10
2022-09-28T05:16:05.386Z,10.10
2022-09-28T05:18:32.856Z,10.10
2022-09-28T05:20:59.885Z,10.10
2022-09-28T05:23:26.751Z,10.10
2022-09-28T05:25:53.591Z,10.10
2022-09-28T05:28:25.351Z,10.10
2022-09-28T05:30:52.364Z,10.10
2022-09-28T05:33:19.294Z,10.20
2022-09-28T05:35:49.739Z,10.20
2022-09-28T05:38:17.924Z,10.20
2022-09-28T05:40:44.997Z,10.20
2022-09-28T05:43:11.836Z,10.20
2022-09-28T05:45:38.757Z,10.20
2022-09-28T05:48:05.612Z,10.20
2022-09-28T05:50:32.727Z,10.30
2022-09-28T05:53:08.358Z,10.30
2022-09-28T05:55:37.801Z,10.30
2022-09-28T05:58:06.679Z,10.30
2022-09-28T06:00:34.815Z,10.30
2022-09-28T06:03:08.700Z,10.30
2022-09-28T06:05:36.393Z,10.30
2022-09-28T06:08:05.354Z,10.30
2022-09-28T06:10:33.508Z,10.30
2022-09-28T06:13:00.890Z,10.30
2022-09-28T06:15:30.543Z,10.30
2022-09-28T06:18:08.061Z,10.20
2022-09-28T06:20:37.508Z,10.20
2022-09-28T06:23:04.787Z,10.20
2022-09-28T06:25:32.425Z,10.20
2022-09-28T06:28:00.443Z,10.20
2022-09-28T06:30:28.854Z,10.30
2022-09-28T06:32:57.237Z,10.20
2022-09-28T06:35:26.417Z,10.20
2022-09-28T06:37:53.819Z,10.30
2022-09-28T06:40:21.439Z,10.30
2022-09-28T06:43:10.553Z,10.30
2022-09-28T06:45:38.547Z,10.20
2022-09-28T06:48:06.826Z,10.20
2022-09-28T06:50:37.527Z,10.30
2022-09-28T06:53:06.913Z,10.10
2022-09-28T06:55:33.756Z,10.20
2022-09-28T06:58:03.233Z,10.20
2022-09-28T07:00:34.086Z,10.20
2022-09-28T07:03:03.106Z,10.20
2022-09-28T07:05:30.649Z,10.20
2022-09-28T07:07:57.962Z,10.20
2022-09-28T07:10:27.833Z,10.30
2022-09-28T07:12:56.298Z,10.30
2022-09-28T07:15:24.377Z,10.30
2022-09-28T07:18:02.820Z,10.40
2022-09-28T07:20:31.007Z,10.30
2022-09-28T07:23:14.547Z,10.30
2022-09-28T07:25:45.677Z,10.40
2022-09-28T07:28:12.627Z,10.50
2022-09-28T07:30:39.728Z,10.60
2022-09-28T07:33:08.160Z,10.50
2022-09-28T07:35:34.988Z,10.60
2022-09-28T07:38:07.117Z,10.60
2022-09-28T07:40:54.078Z,10.60
2022-09-28T07:43:22.105Z,10.60
2022-09-28T07:45:54.444Z,10.60
2022-09-28T07:48:22.315Z,10.50
2022-09-28T07:50:51.885Z,10.50
2022-09-28T07:53:20.269Z,10.50
2022-09-28T07:56:05.812Z,10.50
2022-09-28T07:58:33.933Z,10.60
2022-09-28T08:01:08.590Z,10.60
2022-09-28T08:03:36.522Z,10.70
2022-09-28T08:06:07.168Z,10.80
2022-09-28T08:08:35.154Z,10.80
2022-09-28T08:11:02.510Z,10.80
2022-09-28T08:13:31.183Z,10.80
2022-09-28T08:16:02.124Z,10.90
2022-09-28T08:18:29.826Z,10.60
2022-09-28T08:21:15.342Z,10.70
2022-09-28T08:23:42.243Z,10.80
2022-09-28T08:26:13.315Z,10.80
2022-09-28T08:28:43.366Z,10.80
2022-09-28T08:31:10.298Z,10.90
2022-09-28T08:33:37.214Z,10.90
2022-09-28T08:36:05.217Z,11.00
2022-09-28T08:38:32.909Z,11.10
2022-09-28T08:41:32.349Z,11.00
2022-09-28T08:44:25.076Z,11.10
2022-09-28T08:47:00.124Z,11.10
2022-09-28T08:49:39.135Z,11.20
2022-09-28T08:52:28.195Z,11.20
2022-09-28T08:55:14.057Z,11.20
2022-09-28T08:58:05.149Z,11.10
2022-09-28T09:00:52.420Z,10.90
2022-09-28T09:03:35.883Z,11.00
2022-09-28T09:06:08.806Z,11.00
2022-09-28T09:08:50.196Z,11.20
2022-09-28T09:11:48.891Z,11.00
2022-09-28T09:14:28.021Z,10.90
2022-09-28T09:17:01.092Z,10.80
2022-09-28T09:19:36.259Z,11.00
2022-09-28T09:22:10.138Z,11.00
2022-09-28T09:25:03.244Z,10.90
2022-09-28T09:27:51.214Z,10.50
2022-09-28T09:30:22.044Z,10.60
2022-09-28T09:33:36.201Z,10.50
2022-09-28T09:36:25.001Z,10.40
2022-09-28T09:39:21.641Z,10.40
2022-09-28T09:42:15.500Z,10.40
2022-09-28T09:45:00.355Z,10.60
2022-09-28T09:47:39.380Z,10.60
2022-09-28T09:50:30.693Z,10.60
2022-09-28T09:53:04.922Z,10.50
2022-09-28T09:55:40.284Z,10.60
2022-09-28T09:58:24.252Z,10.60
2022-09-28T10:00:54.417Z,10.60
2022-09-28T10:03:28.205Z,10.60
2022-09-28T10:06:19.730Z,10.70
2022-09-28T10:08:52.347Z,10.90
2022-09-28T10:11:26.195Z,10.90
2022-09-28T10:13:53.017Z,11.00
2022-09-28T10:16:20.076Z,11.10
2022-09-28T10:18:49.647Z,11.30
2022-09-28T10:21:20.205Z,11.00
2022-09-28T10:23:57.289Z,11.00
2022-09-28T10:26:41.813Z,11.30
2022-09-28T10:29:20.012Z,11.50
2022-09-28T10:31:52.065Z,11.70
2022-09-28T10:34:26.358Z,11.50
2022-09-28T10:36:58.468Z,11.30
2022-09-28T10:39:31.811Z,11.30
2022-09-28T10:42:06.239Z,11.30
2022-09-28T10:44:34.488Z,11.50
2022-09-28T10:47:08.891Z,11.70
2022-09-28T10:49:47.122Z,11.60
2022-09-28T10:52:45.266Z,11.80
2022-09-28T10:55:33.054Z,11.80
2022-09-28T10:58:00.754Z,11.90
2022-09-28T11:00:42.005Z,11.80
2022-09-28T11:03:27.946Z,11.90
2022-09-28T11:05:57.939Z,11.90
2022-09-28T11:08:39.618Z,12.00
2022-09-28T11:11:14.717Z,12.20
2022-09-28T11:13:50.194Z,11.90
2022-09-28T11:16:26.697Z,11.60
2022-09-28T11:18:53.679Z,11.90
2022-09-28T11:21:42.965Z,11.70
2022-09-28T11:24:19.028Z,11.60
2022-09-28T11:26:49.652Z,11.40
2022-09-28T11:29:25.751Z,11.20
2022-09-28T11:31:53.128Z,11.50
2022-09-28T11:34:41.601Z,11.50
2022-09-28T11:37:34.362Z,11.50
2022-09-28T11:40:46.051Z,11.60
2022-09-28T11:43:37.255Z,12.00
2022-09-28T11:46:27.596Z,11.60
2022-09-28T11:49:07.154Z,11.40
2022-09-28T11:51:40.246Z,11.50
2022-09-28T11:54:44.372Z,11.80
2022-09-28T11:57:24.135Z,12.30
2022-09-28T11:59:57.822Z,12.20
2022-09-28T12:02:32.074Z,12.60
2022-09-28T12:05:15.916Z,13.10
2022-09-28T12:07:50.274Z,12.90
2022-09-28T12:10:32.354Z,13.30
2022-09-28T12:13:11.966Z,13.40
2022-09-28T12:16:16.831Z,13.10
2022-09-28T12:18:55.339Z,12.70
2022-09-28T12:21:25.496Z,13.20
2022-09-28T12:23:57.048Z,13.40
2022-09-28T12:26:42.216Z,13.40
2022-09-28T12:29:17.254Z,13.50
2022-09-28T12:31:50.240Z,13.30
2022-09-28T12:34:17.063Z,13.40
2022-09-28T12:37:08.093Z,13.40
2022-09-28T12:39:57.896Z,13.10
2022-09-28T12:42:35.908Z,13.10
2022-09-28T12:45:18.892Z,13.30
2022-09-28T12:48:01.048Z,13.50
2022-09-28T12:50:38.779Z,13.40
2022-09-28T12:53:26.140Z,13.30
2022-09-28T12:56:04.668Z,13.10
2022-09-28T12:58:38.710Z,13.50
2022-09-28T13:01:15.166Z,13.60
2022-09-28T13:04:00.703Z,13.50
2022-09-28T13:06:54.962Z,13.30
2022-09-28T13:09:27.579Z,13.40
2022-09-28T13:12:19.242Z,13.40
2022-09-28T13:15:00.760Z,13.60
2022-09-28T13:17:49.763Z,13.60
2022-09-28T13:20:23.385Z,13.90
2022-09-28T13:23:03.153Z,14.20
2022-09-28T13:25:34.318Z,14.40
2022-09-28T13:28:04.216Z,14.60
2022-09-28T13:30:33.460Z,14.70
2022-09-28T13:33:03.389Z,14.80
2022-09-28T13:35:31.430Z,14.90
2022-09-28T13:38:21.009Z,14.70
2022-09-28T13:41:06.465Z,14.50
2022-09-28T13:43:35.413Z,14.60
2022-09-28T13:46:12.646Z,14.50
2022-09-28T13:49:08.873Z,14.20
2022-09-28T13:51:58.859Z,14.20
2022-09-28T13:54:50.390Z,13.70
2022-09-28T13:57:19.879Z,13.40
2022-09-28T14:00:21.944Z,13.50
2022-09-28T14:03:06.309Z,13.40
2022-09-28T14:05:52.664Z,13.50
2022-09-28T14:09:06.854Z,13.40
2022-09-28T14:11:36.919Z,13.50
2022-09-28T14:14:11.947Z,13.50
2022-09-28T14:16:40.483Z,13.30
2022-09-28T14:19:24.755Z,13.20
2022-09-28T14:22:22.142Z,13.20
2022-09-28T14:25:23.757Z,13.30
2022-09-28T14:28:19.469Z,13.20
2022-09-28T14:30:50.304Z,13.10
2022-09-28T14:33:30.614Z,13.10
2022-09-28T14:36:05.264Z,13.00
2022-09-28T14:39:08.652Z,12.90
2022-09-28T14:41:39.951Z,12.80
2022-09-28T14:44:08.667Z,12.60
2022-09-28T14:46:36.995Z,12.60
2022-09-28T14:49:26.792Z,12.50
2022-09-28T14:51:53.633Z,12.50
2022-09-28T14:54:22.975Z,12.60
2022-09-28T14:56:57.174Z,12.60
2022-09-28T14:59:36.114Z,12.60
2022-09-28T15:02:13.486Z,12.60
2022-09-28T15:05:07.597Z,12.50
2022-09-28T15:07:52.337Z,12.60
2022-09-28T15:10:27.764Z,12.50
2022-09-28T15:12:57.254Z,12.40
2022-09-28T15:15:28.966Z,12.40
2022-09-28T15:18:18.848Z,12.20
2022-09-28T15:20:48.101Z,12.10
2022-09-28T15:23:35.487Z,12.00
2022-09-28T15:26:06.730Z,12.00
2022-09-28T15:28:35.832Z,11.80
2022-09-28T15:31:05.151Z,11.70
2022-09-28T15:33:53.690Z,11.70
2022-09-28T15:36:26.462Z,11.60
2022-09-28T15:39:01.325Z,11.60
2022-09-28T15:41:29.253Z,11.50
2022-09-28T15:44:12.540Z,11.40
2022-09-28T15:46:45.379Z,11.40
2022-09-28T15:49:31.580Z,11.40
2022-09-28T15:52:03.101Z,11.30
2022-09-28T15:54:38.953Z,11.30
2022-09-28T15:57:05.902Z,11.30
2022-09-28T15:59:34.794Z,11.20
2022-09-28T16:02:16.859Z,11.10
2022-09-28T16:04:56.024Z,11.00
2022-09-28T16:07:30.073Z,10.90
2022-09-28T16:10:05.455Z,10.90
2022-09-28T16:12:38.464Z,10.80
2022-09-28T16:15:23.703Z,10.80
2022-09-28T16:17:52.153Z,10.70
2022-09-28T16:20:40.529Z,10.60
2022-09-28T16:23:18.493Z,10.60
2022-09-28T16:25:58.852Z,10.50
2022-09-28T16:28:48.985Z,10.40
2022-09-28T16:31:27.411Z,10.20
2022-09-28T16:34:01.349Z,10.00
2022-09-28T16:36:38.615Z,9.80
2022-09-28T16:39:05.514Z,9.70
2022-09-28T16:41:32.380Z,9.50
2022-09-28T16:44:02.266Z,9.50
2022-09-28T16:46:37.255Z,9.40
2022-09-28T16:49:06.228Z,9.40
2022-09-28T16:51:33.789Z,9.30
2022-09-28T16:54:32.774Z,9.20
2022-09-28T16:57:00.517Z,9.10
2022-09-28T16:59:28.419Z,9.10
2022-09-28T17:01:56.841Z,9.00
2022-09-28T17:04:25.171Z,8.80
2022-09-28T17:06:54.401Z,8.80
2022-09-28T17:09:24.315Z,8.70
2022-09-28T17:11:56.203Z,8.50
2022-09-28T17:14:24.017Z,8.40
2022-09-28T17:17:13.811Z,8.40
2022-09-28T17:19:41.390Z,8.40
2022-09-28T17:22:11.457Z,8.30
2022-09-28T17:24:38.350Z,8.10
2022-09-28T17:27:06.983Z,8.00
2022-09-28T17:29:33.827Z,7.90
2022-09-28T17:32:00.699Z,7.80
2022-09-28T17:34:27.622Z,7.80
2022-09-28T17:36:54.810Z,7.70
2022-09-28T17:39:21.781Z,7.70
2022-09-28T17:41:48.610Z,7.60
2022-09-28T17:44:16.411Z,7.50
2022-09-28T17:46:49.718Z,7.40
2022-09-28T17:49:17.244Z,7.40
2022-09-28T17:51:44.131Z,7.40
2022-09-28T17:54:13.038Z,7.30
2022-09-28T17:56:39.907Z,7.20
2022-09-28T17:59:10.714Z,7.20
2022-09-28T18:01:40.218Z,7.10
2022-09-28T18:04:09.009Z,7.20
2022-09-28T18:06:37.387Z,7.00
2022-09-28T18:09:05.197Z,7.10
2022-09-28T18:11:33.328Z,7.00
2022-09-28T18:14:00.260Z,7.00
2022-09-28T18:16:28.989Z,7.10
2022-09-28T18:18:56.453Z,7.10
2022-09-28T18:21:23.413Z,7.00
2022-09-28T18:23:50.589Z,6.90
2022-09-28T18:26:19.667Z,6.80
2022-09-28T18:28:47.162Z,6.80
2022-09-28T18:31:15.908Z,6.70
2022-09-28T18:33:43.443Z,6.60
2022-09-28T18:36:10.663Z,6.60
2022-09-28T18:38:38.435Z,6.60
2022-09-28T18:41:17.181Z,6.60
2022-09-28T18:43:49.305Z,6.60
2022-09-28T18:46:20.364Z,6.60
2022-09-28T18:48:47.892Z,6.50
2022-09-28T18:51:15.140Z,6.50
2022-09-28T18:53:42.302Z,6.60
2022-09-28T18:56:11.811Z,6.70
2022-09-28T18:58:42.121Z,6.70
2022-09-28T19:04:04.580Z,6.60
2022-09-28T19:06:32.792Z,6.60
2022-09-28T19:09:00.000Z,6.60
2022-09-28T19:11:27.365Z,6.50
2022-09-28T19:13:55.509Z,6.40
2022-09-28T19:16:25.297Z,6.50
2022-09-28T19:18:53.791Z,6.50
2022-09-28T19:21:21.062Z,6.40
2022-09-28T19:23:49.880Z,6.50
2022-09-28T19:26:25.459Z,6.60
2022-09-28T19:28:52.615Z,6.40
2022-09-28T19:31:20.142Z,6.40
2022-09-28T19:33:47.306Z,6.40
2022-09-28T19:36:17.857Z,6.50
2022-09-28T19:38:45.572Z,6.50
2022-09-28T19:41:39.422Z,6.30
2022-09-28T19:44:29.776Z,6.30
2022-09-28T19:47:06.885Z,6.30
2022-09-28T19:49:38.526Z,6.20
2022-09-28T19:52:17.671Z,6.20
2022-09-28T19:54:57.054Z,6.20
2022-09-28T19:57:29.943Z,6.20
2022-09-28T20:00:02.149Z,6.20
2022-09-28T20:02:29.633Z,6.10
2022-09-28T20:04:56.501Z,6.20
2022-09-28T20:07:23.380Z,6.30
2022-09-28T20:09:50.194Z,6.20
2022-09-28T20:12:17.228Z,6.10
2022-09-28T20:14:44.020Z,6.10
2022-09-28T20:17:10.874Z,6.20
2022-09-28T20:19:38.196Z,6.30
2022-09-28T20:22:05.204Z,6.20
2022-09-28T20:24:32.291Z,6.20
2022-09-28T20:26:59.448Z,6.30
2022-09-28T20:29:26.808Z,6.30
2022-09-28T20:31:53.680Z,6.20
2022-09-28T20:34:20.605Z,6.20
2022-09-28T20:36:48.345Z,6.20
2022-09-28T20:39:15.326Z,6.30
2022-09-28T20:41:42.522Z,6.40
2022-09-28T20:44:09.994Z,6.50
2022-09-28T20:46:38.193Z,6.60
2022-09-28T20:49:05.601Z,6.50
2022-09-28T20:51:32.809Z,6.50
2022-09-28T20:54:00.212Z,6.40
2022-09-28T20:56:38.852Z,6.40
2022-09-28T20:59:11.732Z,6.40
2022-09-28T21:01:39.225Z,6.40
2022-09-28T21:04:07.865Z,6.40
2022-09-28T21:06:39.886Z,6.50
2022-09-28T21:09:08.446Z,6.50
2022-09-28T21:11:36.059Z,6.50
2022-09-28T21:14:05.843Z,6.50
2022-09-28T21:16:34.512Z,6.60
2022-09-28T21:19:01.553Z,6.60
2022-09-28T21:21:28.419Z,6.60
2022-09-28T21:23:56.906Z,6.60
2022-09-28T21:26:26.072Z,6.70
2022-09-28T21:28:58.200Z,6.60
2022-09-28T21:31:29.062Z,6.70
2022-09-28T21:33:57.127Z,6.70
2022-09-28T21:36:24.556Z,6.70
2022-09-28T21:38:51.512Z,6.70
2022-09-28T21:41:18.345Z,6.70
2022-09-28T21:43:45.959Z,6.70
2022-09-28T21:46:12.989Z,6.70
2022-09-28T21:48:39.983Z,6.60
2022-09-28T21:51:10.260Z,6.60
2022-09-28T21:53:38.314Z,6.60
2022-09-28T21:56:07.568Z,6.50
2022-09-28T21:58:35.657Z,6.50
2022-09-28T22:01:03.922Z,6.40
2022-09-28T22:03:32.192Z,6.30
2022-09-28T22:05:59.420Z,6.30
2022-09-28T22:08:26.537Z,6.20
2022-09-28T22:11:01.563Z,6.30
2022-09-28T22:13:29.487Z,6.50
2022-09-28T22:15:59.959Z,6.20
2022-09-28T22:18:28.310Z,6.20
2022-09-28T22:20:59.552Z,6.30
2022-09-28T22:23:27.778Z,6.30
2022-09-28T22:26:09.775Z,6.30
2022-09-28T22:28:37.269Z,6.30
2022-09-28T22:31:04.421Z,6.40
2022-09-28T22:33:31.302Z,6.40
2022-09-28T22:35:58.100Z,6.40
2022-09-28T22:38:25.259Z,6.40
2022-09-28T22:40:55.056Z,6.60
2022-09-28T22:43:26.646Z,6.90
2022-09-28T22:46:04.093Z,6.80
2022-09-28T22:48:31.522Z,6.80
2022-09-28T22:50:58.915Z,6.80
2022-09-28T22:53:25.761Z,6.70
2022-09-28T22:55:52.648Z,6.70
2022-09-28T22:58:19.527Z,6.60
2022-09-28T23:00:46.411Z,6.70
2022-09-28T23:03:13.327Z,6.90
2022-09-28T23:05:40.225Z,7.20
2022-09-28T23:08:07.212Z,7.00
2022-09-28T23:10:34.146Z,7.00
2022-09-28T23:13:00.956Z,7.00
2022-09-28T23:15:29.050Z,7.00
2022-09-28T23:17:55.991Z,7.40
2022-09-28T23:20:23.756Z,7.30
2022-09-28T23:22:50.949Z,7.20
2022-09-28T23:25:18.868Z,7.30
2022-09-28T23:27:47.108Z,7.10
2022-09-28T23:30:15.922Z,7.00
2022-09-28T23:32:43.127Z,7.00
2022-09-28T23:35:10.872Z,7.00
2022-09-28T23:37:38.053Z,6.90
2022-09-28T23:40:07.984Z,6.90
2022-09-28T23:42:35.563Z,7.00
2022-09-28T23:45:02.478Z,7.20
2022-09-28T23:47:29.308Z,7.20
2022-09-28T23:49:56.112Z,7.30
2022-09-28T23:52:22.974Z,7.50
2022-09-28T23:54:49.796Z,7.50
2022-09-28T23:57:16.725Z,7.50
2022-09-28T23:59:43.518Z,7.40
